sensor_id;sensor_type;location;lat;lon;timestamp;temperature;humidity
35962;DHT22;22044;48.298;10.008;2023-03-04T00:01:58;-0.10;99.90
35962;DHT22;22044;48.298;10.008;2023-03-04T00:04:44;0.00;99.90
35962;DHT22;22044;48.298;10.008;2023-03-04T00:07:30;-0.30;99.90
35962;DHT22;22044;48.298;10.008;2023-03-04T00:10:17;-0.50;99.90
35962;DHT22;22044;48.298;10.008;2023-03-04T00:13:02;-0.60;99.90
35962;DHT22;22044;48.298;10.008;2023-03-04T00:15:48;-0.40;99.90
35962;DHT22;22044;48.298;10.008;2023-03-04T00:18:33;-0.30;99.90
35962;DHT22;22044;48.298;10.008;2023-03-04T00:21:19;-0.20;99.90
35962;DHT22;22044;48.298;10.008;2023-03-04T00:24:07;-0.10;99.90
35962;DHT22;22044;48.298;10.008;2023-03-04T00:26:54;-0.10;99.90
35962;DHT22;22044;48.298;10.008;2023-03-04T00:29:40;0.00;99.90
35962;DHT22;22044;48.298;10.008;2023-03-04T00:32:25;0.00;99.90
35962;DHT22;22044;48.298;10.008;2023-03-04T00:35:11;0.00;99.90
35962;DHT22;22044;48.298;10.008;2023-03-04T00:37:56;0.00;99.90
35962;DHT22;22044;48.298;10.008;2023-03-04T00:40:42;-0.10;99.90
35962;DHT22;22044;48.298;10.008;2023-03-04T00:43:29;-0.60;99.90
35962;DHT22;22044;48.298;10.008;2023-03-04T00:46:16;-1.00;99.90
35962;DHT22;22044;48.298;10.008;2023-03-04T00:49:01;-1.10;99.90
35962;DHT22;22044;48.298;10.008;2023-03-04T00:51:47;-1.30;99.90
35962;DHT22;22044;48.298;10.008;2023-03-04T00:54:33;-1.30;99.90
35962;DHT22;22044;48.298;10.008;2023-03-04T00:57:18;-1.30;99.90
35962;DHT22;22044;48.298;10.008;2023-03-04T01:00:07;-1.20;99.90
35962;DHT22;22044;48.298;10.008;2023-03-04T01:02:54;-1.20;99.90
35962;DHT22;22044;48.298;10.008;2023-03-04T01:05:39;-1.20;99.90
35962;DHT22;22044;48.298;10.008;2023-03-04T01:08:26;-1.20;99.90
35962;DHT22;22044;48.298;10.008;2023-03-04T01:11:12;-1.20;99.90
35962;DHT22;22044;48.298;10.008;2023-03-04T01:13:58;-1.30;99.90
35962;DHT22;22044;48.298;10.008;2023-03-04T01:16:45;-1.30;99.90
35962;DHT22;22044;48.298;10.008;2023-03-04T01:19:30;-1.40;99.90
35962;DHT22;22044;48.298;10.008;2023-03-04T01:22:16;-1.40;99.90
35962;DHT22;22044;48.298;10.008;2023-03-04T01:25:03;-1.40;99.90
35962;DHT22;22044;48.298;10.008;2023-03-04T01:27:49;-1.40;99.90
35962;DHT22;22044;48.298;10.008;2023-03-04T01:30:37;-1.40;99.90
35962;DHT22;22044;48.298;10.008;2023-03-04T01:33:24;-1.30;99.90
35962;DHT22;22044;48.298;10.008;2023-03-04T01:36:09;-1.10;99.90
35962;DHT22;22044;48.298;10.008;2023-03-04T01:38:55;-1.00;99.90
35962;DHT22;22044;48.298;10.008;2023-03-04T01:41:42;-0.90;99.90
35962;DHT22;22044;48.298;10.008;2023-03-04T01:44:27;-0.80;99.90
35962;DHT22;22044;48.298;10.008;2023-03-04T01:47:13;-0.70;99.90
35962;DHT22;22044;48.298;10.008;2023-03-04T01:50:03;-0.60;99.90
35962;DHT22;22044;48.298;10.008;2023-03-04T01:52:49;-0.60;99.90
35962;DHT22;22044;48.298;10.008;2023-03-04T01:55:34;-0.50;99.90
35962;DHT22;22044;48.298;10.008;2023-03-04T01:58:20;-0.50;99.90
35962;DHT22;22044;48.298;10.008;2023-03-04T02:01:06;-0.50;99.90
35962;DHT22;22044;48.298;10.008;2023-03-04T02:03:52;-0.60;99.90
35962;DHT22;22044;48.298;10.008;2023-03-04T02:06:39;-1.10;99.90
35962;DHT22;22044;48.298;10.008;2023-03-04T02:09:26;-1.50;99.90
35962;DHT22;22044;48.298;10.008;2023-03-04T02:12:12;-1.70;99.90
35962;DHT22;22044;48.298;10.008;2023-03-04T02:14:58;-1.70;99.90
35962;DHT22;22044;48.298;10.008;2023-03-04T02:17:43;-1.80;99.90
35962;DHT22;22044;48.298;10.008;2023-03-04T02:20:37;-1.80;99.90
35962;DHT22;22044;48.298;10.008;2023-03-04T02:23:33;-1.70;99.90
35962;DHT22;22044;48.298;10.008;2023-03-04T02:26:22;-1.70;99.90
35962;DHT22;22044;48.298;10.008;2023-03-04T02:29:12;-1.50;99.90
35962;DHT22;22044;48.298;10.008;2023-03-04T02:31:58;-1.40;99.90
35962;DHT22;22044;48.298;10.008;2023-03-04T02:34:46;-1.40;99.90
35962;DHT22;22044;48.298;10.008;2023-03-04T02:37:32;-1.20;99.90
35962;DHT22;22044;48.298;10.008;2023-03-04T02:40:22;-1.10;99.90
35962;DHT22;22044;48.298;10.008;2023-03-04T02:43:10;-1.00;99.90
35962;DHT22;22044;48.298;10.008;2023-03-04T02:45:56;-0.90;99.90
35962;DHT22;22044;48.298;10.008;2023-03-04T02:48:41;-0.80;99.90
35962;DHT22;22044;48.298;10.008;2023-03-04T02:51:27;-0.90;99.90
35962;DHT22;22044;48.298;10.008;2023-03-04T02:54:17;-1.00;99.90
35962;DHT22;22044;48.298;10.008;2023-03-04T02:57:05;-1.40;99.90
35962;DHT22;22044;48.298;10.008;2023-03-04T02:59:54;-1.60;99.90
35962;DHT22;22044;48.298;10.008;2023-03-04T03:02:42;-1.80;99.90
35962;DHT22;22044;48.298;10.008;2023-03-04T03:05:30;-1.90;99.90
35962;DHT22;22044;48.298;10.008;2023-03-04T03:08:16;-1.90;99.90
35962;DHT22;22044;48.298;10.008;2023-03-04T03:11:02;-1.70;99.90
35962;DHT22;22044;48.298;10.008;2023-03-04T03:13:49;-1.50;99.90
35962;DHT22;22044;48.298;10.008;2023-03-04T03:16:37;-1.50;99.90
35962;DHT22;22044;48.298;10.008;2023-03-04T03:19:23;-1.50;99.90
35962;DHT22;22044;48.298;10.008;2023-03-04T03:22:10;-1.40;99.90
35962;DHT22;22044;48.298;10.008;2023-03-04T03:24:55;-1.50;99.90
35962;DHT22;22044;48.298;10.008;2023-03-04T03:27:43;-1.40;99.90
35962;DHT22;22044;48.298;10.008;2023-03-04T03:30:31;-1.50;99.90
35962;DHT22;22044;48.298;10.008;2023-03-04T03:33:18;-1.50;99.90
35962;DHT22;22044;48.298;10.008;2023-03-04T03:36:04;-1.30;99.90
35962;DHT22;22044;48.298;10.008;2023-03-04T03:38:50;-1.40;99.90
35962;DHT22;22044;48.298;10.008;2023-03-04T03:41:36;-1.50;99.90
35962;DHT22;22044;48.298;10.008;2023-03-04T03:44:21;-1.70;99.90
35962;DHT22;22044;48.298;10.008;2023-03-04T03:47:07;-1.90;99.90
35962;DHT22;22044;48.298;10.008;2023-03-04T03:49:54;-1.90;99.90
35962;DHT22;22044;48.298;10.008;2023-03-04T03:52:40;-2.00;99.90
35962;DHT22;22044;48.298;10.008;2023-03-04T03:55:25;-2.00;99.90
35962;DHT22;22044;48.298;10.008;2023-03-04T03:58:11;-2.10;99.90
35962;DHT22;22044;48.298;10.008;2023-03-04T04:00:57;-2.10;99.90
35962;DHT22;22044;48.298;10.008;2023-03-04T04:03:43;-2.20;99.90
35962;DHT22;22044;48.298;10.008;2023-03-04T04:06:30;-2.20;99.90
35962;DHT22;22044;48.298;10.008;2023-03-04T04:09:16;-2.10;99.90
35962;DHT22;22044;48.298;10.008;2023-03-04T04:12:03;-2.00;99.90
35962;DHT22;22044;48.298;10.008;2023-03-04T04:14:49;-1.80;99.90
35962;DHT22;22044;48.298;10.008;2023-03-04T04:17:35;-1.80;99.90
35962;DHT22;22044;48.298;10.008;2023-03-04T04:20:21;-1.90;99.90
35962;DHT22;22044;48.298;10.008;2023-03-04T04:23:08;-2.00;99.90
35962;DHT22;22044;48.298;10.008;2023-03-04T04:25:54;-1.90;99.90
35962;DHT22;22044;48.298;10.008;2023-03-04T04:28:40;-1.90;99.90
35962;DHT22;22044;48.298;10.008;2023-03-04T04:31:25;-1.70;99.90
35962;DHT22;22044;48.298;10.008;2023-03-04T04:34:11;-1.60;99.90
35962;DHT22;22044;48.298;10.008;2023-03-04T04:36:57;-1.50;99.90
35962;DHT22;22044;48.298;10.008;2023-03-04T04:39:44;-1.50;99.90
35962;DHT22;22044;48.298;10.008;2023-03-04T04:42:29;-1.40;99.90
35962;DHT22;22044;48.298;10.008;2023-03-04T04:45:15;-1.30;99.90
35962;DHT22;22044;48.298;10.008;2023-03-04T04:48:00;-1.20;99.90
35962;DHT22;22044;48.298;10.008;2023-03-04T04:50:52;-1.20;99.90
35962;DHT22;22044;48.298;10.008;2023-03-04T04:53:38;-1.20;99.90
35962;DHT22;22044;48.298;10.008;2023-03-04T04:56:25;-1.40;99.90
35962;DHT22;22044;48.298;10.008;2023-03-04T04:59:11;-1.50;99.90
35962;DHT22;22044;48.298;10.008;2023-03-04T05:01:57;-1.70;99.90
35962;DHT22;22044;48.298;10.008;2023-03-04T05:04:42;-1.60;99.90
35962;DHT22;22044;48.298;10.008;2023-03-04T05:07:28;-1.90;99.90
35962;DHT22;22044;48.298;10.008;2023-03-04T05:10:13;-1.90;99.90
35962;DHT22;22044;48.298;10.008;2023-03-04T05:13:00;-1.90;99.90
35962;DHT22;22044;48.298;10.008;2023-03-04T05:15:46;-2.10;99.90
35962;DHT22;22044;48.298;10.008;2023-03-04T05:18:32;-2.00;99.90
35962;DHT22;22044;48.298;10.008;2023-03-04T05:21:18;-1.90;99.90
35962;DHT22;22044;48.298;10.008;2023-03-04T05:24:03;-1.70;99.90
35962;DHT22;22044;48.298;10.008;2023-03-04T05:26:49;-1.70;99.90
35962;DHT22;22044;48.298;10.008;2023-03-04T05:29:36;-1.60;99.90
35962;DHT22;22044;48.298;10.008;2023-03-04T05:32:22;-1.80;99.90
35962;DHT22;22044;48.298;10.008;2023-03-04T05:35:08;-1.90;99.90
35962;DHT22;22044;48.298;10.008;2023-03-04T05:37:54;-2.10;99.90
35962;DHT22;22044;48.298;10.008;2023-03-04T05:40:39;-2.20;99.90
35962;DHT22;22044;48.298;10.008;2023-03-04T05:43:26;-2.20;99.90
35962;DHT22;22044;48.298;10.008;2023-03-04T05:46:14;-2.30;99.90
35962;DHT22;22044;48.298;10.008;2023-03-04T05:49:00;-2.30;99.90
35962;DHT22;22044;48.298;10.008;2023-03-04T05:51:46;-2.30;99.90
35962;DHT22;22044;48.298;10.008;2023-03-04T05:54:31;-2.20;99.90
35962;DHT22;22044;48.298;10.008;2023-03-04T05:57:17;-2.10;99.90
35962;DHT22;22044;48.298;10.008;2023-03-04T06:00:04;-2.00;99.90
35962;DHT22;22044;48.298;10.008;2023-03-04T06:02:58;-2.00;99.90
35962;DHT22;22044;48.298;10.008;2023-03-04T06:05:43;-1.90;99.90
35962;DHT22;22044;48.298;10.008;2023-03-04T06:08:29;-1.80;99.90
35962;DHT22;22044;48.298;10.008;2023-03-04T06:11:15;-1.70;99.90
35962;DHT22;22044;48.298;10.008;2023-03-04T06:14:00;-1.80;99.90
35962;DHT22;22044;48.298;10.008;2023-03-04T06:16:46;-2.00;99.90
35962;DHT22;22044;48.298;10.008;2023-03-04T06:19:33;-2.20;99.90
35962;DHT22;22044;48.298;10.008;2023-03-04T06:22:21;-2.40;99.90
35962;DHT22;22044;48.298;10.008;2023-03-04T06:25:09;-2.50;99.90
35962;DHT22;22044;48.298;10.008;2023-03-04T06:27:54;-2.40;99.90
35962;DHT22;22044;48.298;10.008;2023-03-04T06:30:40;-2.50;99.90
35962;DHT22;22044;48.298;10.008;2023-03-04T06:33:25;-2.40;99.90
35962;DHT22;22044;48.298;10.008;2023-03-04T06:36:13;-2.30;99.90
35962;DHT22;22044;48.298;10.008;2023-03-04T06:38:58;-2.30;99.90
35962;DHT22;22044;48.298;10.008;2023-03-04T06:41:44;-2.30;99.90
35962;DHT22;22044;48.298;10.008;2023-03-04T06:44:29;-2.30;99.90
35962;DHT22;22044;48.298;10.008;2023-03-04T06:47:15;-2.20;99.90
35962;DHT22;22044;48.298;10.008;2023-03-04T06:50:02;-2.20;99.90
35962;DHT22;22044;48.298;10.008;2023-03-04T06:52:49;-2.10;99.90
35962;DHT22;22044;48.298;10.008;2023-03-04T06:55:34;-2.10;99.90
35962;DHT22;22044;48.298;10.008;2023-03-04T06:58:20;-2.00;99.90
35962;DHT22;22044;48.298;10.008;2023-03-04T07:01:13;-1.90;99.90
35962;DHT22;22044;48.298;10.008;2023-03-04T07:03:59;-1.80;99.90
35962;DHT22;22044;48.298;10.008;2023-03-04T07:06:45;-1.70;99.90
35962;DHT22;22044;48.298;10.008;2023-03-04T07:09:32;-1.50;99.90
35962;DHT22;22044;48.298;10.008;2023-03-04T07:12:18;-1.30;99.90
35962;DHT22;22044;48.298;10.008;2023-03-04T07:15:04;-1.10;99.90
35962;DHT22;22044;48.298;10.008;2023-03-04T07:17:50;-1.00;99.90
35962;DHT22;22044;48.298;10.008;2023-03-04T07:20:36;-0.90;99.90
35962;DHT22;22044;48.298;10.008;2023-03-04T07:23:21;-0.70;99.90
35962;DHT22;22044;48.298;10.008;2023-03-04T07:26:08;-0.60;99.90
35962;DHT22;22044;48.298;10.008;2023-03-04T07:28:53;-0.40;99.90
35962;DHT22;22044;48.298;10.008;2023-03-04T07:31:41;-0.30;99.90
35962;DHT22;22044;48.298;10.008;2023-03-04T07:34:27;-0.20;99.90
35962;DHT22;22044;48.298;10.008;2023-03-04T07:37:12;-0.10;99.90
35962;DHT22;22044;48.298;10.008;2023-03-04T07:39:58;0.00;99.90
35962;DHT22;22044;48.298;10.008;2023-03-04T07:42:48;0.10;99.90
35962;DHT22;22044;48.298;10.008;2023-03-04T07:45:34;0.30;99.90
35962;DHT22;22044;48.298;10.008;2023-03-04T07:48:21;0.40;99.90
35962;DHT22;22044;48.298;10.008;2023-03-04T07:51:09;0.60;99.90
35962;DHT22;22044;48.298;10.008;2023-03-04T07:53:57;0.80;99.90
35962;DHT22;22044;48.298;10.008;2023-03-04T07:56:42;0.90;99.90
35962;DHT22;22044;48.298;10.008;2023-03-04T07:59:29;1.00;99.90
35962;DHT22;22044;48.298;10.008;2023-03-04T08:02:15;1.00;99.90
35962;DHT22;22044;48.298;10.008;2023-03-04T08:05:00;1.30;99.90
35962;DHT22;22044;48.298;10.008;2023-03-04T08:07:46;1.30;99.90
35962;DHT22;22044;48.298;10.008;2023-03-04T08:10:32;1.40;99.90
35962;DHT22;22044;48.298;10.008;2023-03-04T08:13:17;1.60;99.90
35962;DHT22;22044;48.298;10.008;2023-03-04T08:16:06;1.70;99.90
35962;DHT22;22044;48.298;10.008;2023-03-04T08:18:53;1.90;99.90
35962;DHT22;22044;48.298;10.008;2023-03-04T08:21:39;2.00;99.90
35962;DHT22;22044;48.298;10.008;2023-03-04T08:24:24;2.30;99.90
35962;DHT22;22044;48.298;10.008;2023-03-04T08:27:10;2.40;99.90
35962;DHT22;22044;48.298;10.008;2023-03-04T08:29:56;2.20;99.90
35962;DHT22;22044;48.298;10.008;2023-03-04T08:32:43;2.30;99.90
35962;DHT22;22044;48.298;10.008;2023-03-04T08:35:28;2.80;99.90
35962;DHT22;22044;48.298;10.008;2023-03-04T08:38:14;3.20;99.90
35962;DHT22;22044;48.298;10.008;2023-03-04T08:41:00;3.00;99.90
35962;DHT22;22044;48.298;10.008;2023-03-04T08:43:47;3.30;99.90
35962;DHT22;22044;48.298;10.008;2023-03-04T08:46:32;3.80;99.90
35962;DHT22;22044;48.298;10.008;2023-03-04T08:49:19;3.70;99.90
35962;DHT22;22044;48.298;10.008;2023-03-04T08:52:05;3.60;99.90
35962;DHT22;22044;48.298;10.008;2023-03-04T08:54:50;3.90;99.90
35962;DHT22;22044;48.298;10.008;2023-03-04T08:57:36;4.20;99.90
35962;DHT22;22044;48.298;10.008;2023-03-04T09:00:22;5.10;99.90
35962;DHT22;22044;48.298;10.008;2023-03-04T09:03:08;5.20;99.90
35962;DHT22;22044;48.298;10.008;2023-03-04T09:05:55;5.30;99.90
35962;DHT22;22044;48.298;10.008;2023-03-04T09:08:41;5.30;99.90
35962;DHT22;22044;48.298;10.008;2023-03-04T09:11:26;5.50;99.90
35962;DHT22;22044;48.298;10.008;2023-03-04T09:14:12;5.60;99.90
35962;DHT22;22044;48.298;10.008;2023-03-04T09:16:57;5.70;99.90
35962;DHT22;22044;48.298;10.008;2023-03-04T09:19:44;5.50;99.90
35962;DHT22;22044;48.298;10.008;2023-03-04T09:22:31;5.70;99.90
35962;DHT22;22044;48.298;10.008;2023-03-04T09:25:16;6.00;99.90
35962;DHT22;22044;48.298;10.008;2023-03-04T09:28:06;6.20;99.90
35962;DHT22;22044;48.298;10.008;2023-03-04T09:30:53;6.40;99.90
35962;DHT22;22044;48.298;10.008;2023-03-04T09:33:39;6.30;99.90
35962;DHT22;22044;48.298;10.008;2023-03-04T09:36:26;6.10;99.90
35962;DHT22;22044;48.298;10.008;2023-03-04T09:39:12;6.10;99.90
35962;DHT22;22044;48.298;10.008;2023-03-04T09:41:58;6.00;99.90
35962;DHT22;22044;48.298;10.008;2023-03-04T09:44:45;6.00;99.90
35962;DHT22;22044;48.298;10.008;2023-03-04T09:47:33;6.10;99.90
35962;DHT22;22044;48.298;10.008;2023-03-04T09:50:19;5.90;99.90
35962;DHT22;22044;48.298;10.008;2023-03-04T09:53:06;5.80;99.90
35962;DHT22;22044;48.298;10.008;2023-03-04T09:55:59;5.80;99.90
35962;DHT22;22044;48.298;10.008;2023-03-04T09:58:55;5.80;99.90
35962;DHT22;22044;48.298;10.008;2023-03-04T10:01:47;5.70;99.90
35962;DHT22;22044;48.298;10.008;2023-03-04T10:04:35;5.70;99.90
35962;DHT22;22044;48.298;10.008;2023-03-04T10:07:26;5.90;99.90
35962;DHT22;22044;48.298;10.008;2023-03-04T10:10:16;6.00;99.90
35962;DHT22;22044;48.298;10.008;2023-03-04T10:13:05;5.90;99.90
35962;DHT22;22044;48.298;10.008;2023-03-04T10:15:56;5.70;99.90
35962;DHT22;22044;48.298;10.008;2023-03-04T10:18:47;5.70;99.90
35962;DHT22;22044;48.298;10.008;2023-03-04T10:21:36;5.40;99.90
35962;DHT22;22044;48.298;10.008;2023-03-04T10:24:27;5.30;99.90
35962;DHT22;22044;48.298;10.008;2023-03-04T10:27:15;5.70;99.90
35962;DHT22;22044;48.298;10.008;2023-03-04T10:30:03;5.90;99.90
35962;DHT22;22044;48.298;10.008;2023-03-04T10:32:51;6.00;99.90
35962;DHT22;22044;48.298;10.008;2023-03-04T10:35:37;6.10;99.90
35962;DHT22;22044;48.298;10.008;2023-03-04T10:38:23;5.90;99.90
35962;DHT22;22044;48.298;10.008;2023-03-04T10:41:13;5.70;99.90
35962;DHT22;22044;48.298;10.008;2023-03-04T10:44:04;5.80;99.90
35962;DHT22;22044;48.298;10.008;2023-03-04T10:46:57;5.80;99.90
35962;DHT22;22044;48.298;10.008;2023-03-04T10:49:50;5.70;99.90
35962;DHT22;22044;48.298;10.008;2023-03-04T10:52:39;5.70;99.90
35962;DHT22;22044;48.298;10.008;2023-03-04T10:55:27;5.80;99.90
35962;DHT22;22044;48.298;10.008;2023-03-04T10:58:15;5.90;99.90
35962;DHT22;22044;48.298;10.008;2023-03-04T11:01:04;5.70;99.90
35962;DHT22;22044;48.298;10.008;2023-03-04T11:03:52;5.70;99.90
35962;DHT22;22044;48.298;10.008;2023-03-04T11:06:39;5.70;99.90
35962;DHT22;22044;48.298;10.008;2023-03-04T11:09:27;5.80;99.90
35962;DHT22;22044;48.298;10.008;2023-03-04T11:12:15;5.90;99.90
35962;DHT22;22044;48.298;10.008;2023-03-04T11:15:02;6.10;99.90
35962;DHT22;22044;48.298;10.008;2023-03-04T11:17:49;6.30;99.90
35962;DHT22;22044;48.298;10.008;2023-03-04T11:20:40;6.50;99.90
35962;DHT22;22044;48.298;10.008;2023-03-04T11:23:32;6.20;99.90
35962;DHT22;22044;48.298;10.008;2023-03-04T11:26:23;6.10;99.90
35962;DHT22;22044;48.298;10.008;2023-03-04T11:29:14;5.80;99.90
35962;DHT22;22044;48.298;10.008;2023-03-04T11:32:06;5.80;99.90
35962;DHT22;22044;48.298;10.008;2023-03-04T11:34:57;5.80;99.90
35962;DHT22;22044;48.298;10.008;2023-03-04T11:37:52;5.40;99.90
35962;DHT22;22044;48.298;10.008;2023-03-04T11:40:41;5.30;99.90
35962;DHT22;22044;48.298;10.008;2023-03-04T11:43:32;5.20;99.90
35962;DHT22;22044;48.298;10.008;2023-03-04T11:46:54;5.10;99.90
35962;DHT22;22044;48.298;10.008;2023-03-04T11:53:22;5.00;99.90
35962;DHT22;22044;48.298;10.008;2023-03-04T11:56:23;5.00;99.90
35962;DHT22;22044;48.298;10.008;2023-03-04T11:59:29;4.90;99.90
35962;DHT22;22044;48.298;10.008;2023-03-04T12:02:19;5.10;99.90
35962;DHT22;22044;48.298;10.008;2023-03-04T12:05:26;5.40;99.90
35962;DHT22;22044;48.298;10.008;2023-03-04T12:08:38;5.20;99.90
35962;DHT22;22044;48.298;10.008;2023-03-04T12:11:31;5.50;99.90
35962;DHT22;22044;48.298;10.008;2023-03-04T12:14:28;5.60;99.90
35962;DHT22;22044;48.298;10.008;2023-03-04T12:17:29;5.40;99.90
35962;DHT22;22044;48.298;10.008;2023-03-04T12:20:43;5.60;99.90
35962;DHT22;22044;48.298;10.008;2023-03-04T12:23:50;5.40;99.90
35962;DHT22;22044;48.298;10.008;2023-03-04T12:26:40;5.40;99.90
35962;DHT22;22044;48.298;10.008;2023-03-04T12:29:33;5.30;99.90
35962;DHT22;22044;48.298;10.008;2023-03-04T12:32:26;5.20;99.90
35962;DHT22;22044;48.298;10.008;2023-03-04T12:35:33;5.00;99.90
35962;DHT22;22044;48.298;10.008;2023-03-04T12:38:39;5.00;99.90
35962;DHT22;22044;48.298;10.008;2023-03-04T12:41:37;5.10;99.90
35962;DHT22;22044;48.298;10.008;2023-03-04T12:44:26;5.00;99.90
35962;DHT22;22044;48.298;10.008;2023-03-04T12:47:27;5.00;99.90
35962;DHT22;22044;48.298;10.008;2023-03-04T12:50:26;5.20;99.90
35962;DHT22;22044;48.298;10.008;2023-03-04T12:53:22;5.20;99.90
35962;DHT22;22044;48.298;10.008;2023-03-04T12:56:21;5.40;99.90
35962;DHT22;22044;48.298;10.008;2023-03-04T12:59:13;5.20;99.90
35962;DHT22;22044;48.298;10.008;2023-03-04T13:02:09;5.30;99.90
35962;DHT22;22044;48.298;10.008;2023-03-04T13:05:18;5.20;99.90
35962;DHT22;22044;48.298;10.008;2023-03-04T13:08:14;5.20;99.90
35962;DHT22;22044;48.298;10.008;2023-03-04T13:11:31;4.90;99.90
35962;DHT22;22044;48.298;10.008;2023-03-04T13:14:27;4.80;99.90
35962;DHT22;22044;48.298;10.008;2023-03-04T13:17:36;4.70;99.90
35962;DHT22;22044;48.298;10.008;2023-03-04T13:20:33;4.70;99.90
35962;DHT22;22044;48.298;10.008;2023-03-04T13:23:25;4.60;99.90
35962;DHT22;22044;48.298;10.008;2023-03-04T13:26:26;4.50;99.90
35962;DHT22;22044;48.298;10.008;2023-03-04T13:29:34;4.40;99.90
35962;DHT22;22044;48.298;10.008;2023-03-04T13:32:36;4.50;99.90
35962;DHT22;22044;48.298;10.008;2023-03-04T13:35:47;4.40;99.90
35962;DHT22;22044;48.298;10.008;2023-03-04T13:38:34;4.30;99.90
35962;DHT22;22044;48.298;10.008;2023-03-04T13:41:22;4.30;99.90
35962;DHT22;22044;48.298;10.008;2023-03-04T13:47:44;4.00;99.90
35962;DHT22;22044;48.298;10.008;2023-03-04T13:50:37;3.90;99.90
35962;DHT22;22044;48.298;10.008;2023-03-04T13:53:42;4.00;99.90
35962;DHT22;22044;48.298;10.008;2023-03-04T13:56:30;4.10;99.90
35962;DHT22;22044;48.298;10.008;2023-03-04T13:59:26;4.20;99.90
35962;DHT22;22044;48.298;10.008;2023-03-04T14:02:14;4.10;99.90
35962;DHT22;22044;48.298;10.008;2023-03-04T14:05:06;4.00;99.90
35962;DHT22;22044;48.298;10.008;2023-03-04T14:07:51;3.80;99.90
35962;DHT22;22044;48.298;10.008;2023-03-04T14:10:37;3.70;99.90
35962;DHT22;22044;48.298;10.008;2023-03-04T14:13:24;3.70;99.90
35962;DHT22;22044;48.298;10.008;2023-03-04T14:16:10;3.60;99.90
35962;DHT22;22044;48.298;10.008;2023-03-04T14:18:58;3.60;99.90
35962;DHT22;22044;48.298;10.008;2023-03-04T14:21:47;3.60;99.90
35962;DHT22;22044;48.298;10.008;2023-03-04T14:24:33;3.60;99.90
35962;DHT22;22044;48.298;10.008;2023-03-04T14:27:18;3.80;99.90
35962;DHT22;22044;48.298;10.008;2023-03-04T14:30:07;3.80;99.90
35962;DHT22;22044;48.298;10.008;2023-03-04T14:32:55;3.90;99.90
35962;DHT22;22044;48.298;10.008;2023-03-04T14:35:45;4.00;99.90
35962;DHT22;22044;48.298;10.008;2023-03-04T14:38:34;4.00;99.90
35962;DHT22;22044;48.298;10.008;2023-03-04T14:41:24;4.00;99.90
35962;DHT22;22044;48.298;10.008;2023-03-04T14:44:17;4.00;99.90
35962;DHT22;22044;48.298;10.008;2023-03-04T14:47:12;3.90;99.90
35962;DHT22;22044;48.298;10.008;2023-03-04T14:50:03;3.90;99.90
35962;DHT22;22044;48.298;10.008;2023-03-04T14:52:50;3.90;99.90
35962;DHT22;22044;48.298;10.008;2023-03-04T14:55:57;3.80;99.90
35962;DHT22;22044;48.298;10.008;2023-03-04T14:58:51;3.80;99.90
35962;DHT22;22044;48.298;10.008;2023-03-04T15:01:37;3.80;99.90
35962;DHT22;22044;48.298;10.008;2023-03-04T15:04:23;3.70;99.90
35962;DHT22;22044;48.298;10.008;2023-03-04T15:07:14;3.80;99.90
35962;DHT22;22044;48.298;10.008;2023-03-04T15:10:03;3.80;99.90
35962;DHT22;22044;48.298;10.008;2023-03-04T15:12:56;3.70;99.90
35962;DHT22;22044;48.298;10.008;2023-03-04T15:15:44;3.60;99.90
35962;DHT22;22044;48.298;10.008;2023-03-04T15:18:32;3.50;99.90
35962;DHT22;22044;48.298;10.008;2023-03-04T15:21:33;3.40;99.90
35962;DHT22;22044;48.298;10.008;2023-03-04T15:24:20;3.30;99.90
35962;DHT22;22044;48.298;10.008;2023-03-04T15:27:07;3.30;99.90
35962;DHT22;22044;48.298;10.008;2023-03-04T15:29:57;3.30;99.90
35962;DHT22;22044;48.298;10.008;2023-03-04T15:32:45;3.20;99.90
35962;DHT22;22044;48.298;10.008;2023-03-04T15:35:31;3.10;99.90
35962;DHT22;22044;48.298;10.008;2023-03-04T15:38:17;3.10;99.90
35962;DHT22;22044;48.298;10.008;2023-03-04T15:41:03;3.10;99.90
35962;DHT22;22044;48.298;10.008;2023-03-04T15:43:49;3.00;99.90
35962;DHT22;22044;48.298;10.008;2023-03-04T15:46:36;2.90;99.90
35962;DHT22;22044;48.298;10.008;2023-03-04T15:49:22;2.80;99.90
35962;DHT22;22044;48.298;10.008;2023-03-04T15:52:12;2.80;99.90
35962;DHT22;22044;48.298;10.008;2023-03-04T15:54:59;2.70;99.90
35962;DHT22;22044;48.298;10.008;2023-03-04T15:57:46;2.70;99.90
35962;DHT22;22044;48.298;10.008;2023-03-04T16:00:32;2.60;99.90
35962;DHT22;22044;48.298;10.008;2023-03-04T16:03:20;2.30;99.90
35962;DHT22;22044;48.298;10.008;2023-03-04T16:06:08;2.10;99.90
35962;DHT22;22044;48.298;10.008;2023-03-04T16:08:54;2.10;99.90
35962;DHT22;22044;48.298;10.008;2023-03-04T16:11:42;2.20;99.90
35962;DHT22;22044;48.298;10.008;2023-03-04T16:14:30;2.20;99.90
35962;DHT22;22044;48.298;10.008;2023-03-04T16:17:16;2.10;99.90
35962;DHT22;22044;48.298;10.008;2023-03-04T16:20:03;2.10;99.90
35962;DHT22;22044;48.298;10.008;2023-03-04T16:22:52;2.00;99.90
35962;DHT22;22044;48.298;10.008;2023-03-04T16:25:38;2.00;99.90
35962;DHT22;22044;48.298;10.008;2023-03-04T16:28:24;2.00;99.90
35962;DHT22;22044;48.298;10.008;2023-03-04T16:31:10;1.80;99.90
35962;DHT22;22044;48.298;10.008;2023-03-04T16:33:56;1.70;99.90
35962;DHT22;22044;48.298;10.008;2023-03-04T16:36:43;1.60;99.90
35962;DHT22;22044;48.298;10.008;2023-03-04T16:39:28;1.50;99.90
35962;DHT22;22044;48.298;10.008;2023-03-04T16:42:15;1.40;99.90
35962;DHT22;22044;48.298;10.008;2023-03-04T16:45:03;1.40;99.90
35962;DHT22;22044;48.298;10.008;2023-03-04T16:47:49;1.30;99.90
35962;DHT22;22044;48.298;10.008;2023-03-04T16:50:35;1.20;99.90
35962;DHT22;22044;48.298;10.008;2023-03-04T16:53:31;1.20;99.90
35962;DHT22;22044;48.298;10.008;2023-03-04T16:56:18;1.20;99.90
35962;DHT22;22044;48.298;10.008;2023-03-04T16:59:04;1.20;99.90
35962;DHT22;22044;48.298;10.008;2023-03-04T17:01:50;1.10;99.90
35962;DHT22;22044;48.298;10.008;2023-03-04T17:04:36;1.10;99.90
35962;DHT22;22044;48.298;10.008;2023-03-04T17:07:25;1.10;99.90
35962;DHT22;22044;48.298;10.008;2023-03-04T17:10:12;1.20;99.90
35962;DHT22;22044;48.298;10.008;2023-03-04T17:12:58;1.10;99.90
35962;DHT22;22044;48.298;10.008;2023-03-04T17:15:44;1.10;99.90
35962;DHT22;22044;48.298;10.008;2023-03-04T17:18:29;1.10;99.90
35962;DHT22;22044;48.298;10.008;2023-03-04T17:21:18;1.10;99.90
35962;DHT22;22044;48.298;10.008;2023-03-04T17:24:05;1.10;99.90
35962;DHT22;22044;48.298;10.008;2023-03-04T17:26:53;1.20;99.90
35962;DHT22;22044;48.298;10.008;2023-03-04T17:29:38;1.10;99.90
35962;DHT22;22044;48.298;10.008;2023-03-04T17:32:24;1.20;99.90
35962;DHT22;22044;48.298;10.008;2023-03-04T17:35:10;1.20;99.90
35962;DHT22;22044;48.298;10.008;2023-03-04T17:37:56;1.30;99.90
35962;DHT22;22044;48.298;10.008;2023-03-04T17:40:42;1.20;99.90
35962;DHT22;22044;48.298;10.008;2023-03-04T17:43:29;1.10;99.90
35962;DHT22;22044;48.298;10.008;2023-03-04T17:46:16;1.20;99.90